createdAt,value
2022-08-05T00:01:27.910Z,0
2022-08-05T00:06:33.250Z,0
2022-08-05T00:11:48.304Z,0
2022-08-05T00:16:53.094Z,0
2022-08-05T00:21:55.399Z,0
2022-08-05T00:26:56.981Z,0
2022-08-05T00:32:12.551Z,0
2022-08-05T00:37:16.335Z,0
2022-08-05T00:42:32.143Z,0
2022-08-05T00:47:56.657Z,0.88715
2022-08-05T00:53:09.932Z,0
2022-08-05T00:59:01.466Z,0.88715
2022-08-05T01:04:13.815Z,0.88715
2022-08-05T01:09:17.311Z,0
2022-08-05T01:14:27.863Z,0
2022-08-05T01:19:56.373Z,0
2022-08-05T01:25:04.757Z,0
2022-08-05T01:30:06.225Z,0
2022-08-05T01:35:50.585Z,0
2022-08-05T01:40:54.441Z,0
2022-08-05T01:45:56.737Z,0
2022-08-05T01:51:00.082Z,0.88715
2022-08-05T01:56:13.911Z,0
2022-08-05T02:03:24.519Z,0
2022-08-05T02:08:34.333Z,0
2022-08-05T02:13:53.074Z,0
2022-08-05T02:18:55.582Z,0
2022-08-05T02:23:57.450Z,0.88715
2022-08-05T02:28:59.326Z,0
2022-08-05T02:34:00.902Z,0
2022-08-05T02:39:02.932Z,0
2022-08-05T02:44:06.947Z,0
2022-08-05T02:49:15.324Z,0.88715
2022-08-05T02:54:35.739Z,0
2022-08-05T02:59:50.138Z,0.88715
2022-08-05T03:04:53.472Z,0.88715
2022-08-05T03:09:55.569Z,0
2022-08-05T03:14:57.001Z,0
2022-08-05T03:19:58.703Z,0
2022-08-05T03:25:02.227Z,0
2022-08-05T03:30:34.438Z,0
2022-08-05T03:35:40.554Z,0.88715
2022-08-05T03:40:45.266Z,0.88715
2022-08-05T03:45:57.329Z,0
2022-08-05T03:52:37.090Z,0.88715
2022-08-05T04:00:01.691Z,0.88715
2022-08-05T04:05:03.692Z,0.88715
2022-08-05T04:10:05.150Z,0.88715
2022-08-05T04:15:06.903Z,0.88715
2022-08-05T04:20:09.558Z,1.16185
2022-08-05T04:25:15.655Z,2.50815
2022-08-05T04:30:17.502Z,2.13325
2022-08-05T04:35:20.075Z,3.67395
2022-08-05T04:40:21.961Z,10.7704
2022-08-05T04:45:47.896Z,20.803
2022-08-05T04:51:02.525Z,43.4315
2022-08-05T04:56:33.693Z,67.59075
2022-08-05T05:02:07.036Z,100.307
2022-08-05T05:07:36.964Z,140.60285
2022-08-05T05:12:47.436Z,170.6265
2022-08-05T05:17:56.249Z,206.699
2022-08-05T05:22:58.997Z,235.98485
2022-08-05T05:28:00.781Z,268.75625
2022-08-05T05:33:03.880Z,291.99325
2022-08-05T05:38:25.242Z,315.96805
2022-08-05T05:43:56.722Z,340.07215
2022-08-05T05:49:06.430Z,375.7396
2022-08-05T05:54:15.330Z,399.3645
2022-08-05T05:59:18.705Z,428.7245
2022-08-05T06:04:22.113Z,453.01305
2022-08-05T06:09:26.504Z,491.66785
2022-08-05T06:14:54.685Z,512.58115
2022-08-05T06:19:59.727Z,540.59485
2022-08-05T06:25:01.749Z,575.3952
2022-08-05T06:30:27.411Z,636.01485
2022-08-05T06:36:03.731Z,677.4364
2022-08-05T06:41:11.711Z,720.59215
2022-08-05T06:46:13.258Z,757.256
2022-08-05T06:51:22.754Z,797.09165
2022-08-05T06:56:29.706Z,810.8684
2022-08-05T07:01:32.771Z,840.7266
2022-08-05T07:06:34.726Z,853.52595
2022-08-05T07:11:36.849Z,865.53235
2022-08-05T07:17:56.476Z,907.00905
2022-08-05T07:23:04.776Z,935.65025
2022-08-05T07:28:11.258Z,945.5174
2022-08-05T07:33:16.054Z,982.53115
2022-08-05T07:38:32.196Z,1002.6705
2022-08-05T07:43:36.997Z,1027.2728
2022-08-05T07:49:03.692Z,1055.6744
2022-08-05T07:54:08.305Z,1090.8075
2022-08-05T07:59:11.310Z,1112.92065
2022-08-05T08:04:16.093Z,1112.0364
2022-08-05T08:09:17.581Z,1185.27095
2022-08-05T08:14:21.715Z,1207.19965
2022-08-05T08:20:42.980Z,1190.60285
2022-08-05T08:25:59.320Z,1232.4313
2022-08-05T08:31:02.774Z,1269.11415
2022-08-05T08:36:37.536Z,1306.1659
2022-08-05T08:41:51.808Z,1334.1073
2022-08-05T08:47:01.753Z,1357.56675
2022-08-05T08:52:13.444Z,1400.53805
2022-08-05T08:57:17.651Z,1458.18935
2022-08-05T09:02:19.456Z,1495.7203
2022-08-05T09:07:28.845Z,1510.9175
2022-08-05T09:12:32.733Z,1547.8951
2022-08-05T09:17:42.591Z,1598.74075
2022-08-05T09:22:51.833Z,1630.22285
2022-08-05T09:28:05.340Z,1683.7611
2022-08-05T09:33:08.013Z,1727.8201
2022-08-05T09:38:12.210Z,1750.17285
2022-08-05T09:43:21.585Z,1798.14145
2022-08-05T09:48:23.794Z,1831.44905
2022-08-05T09:53:53.796Z,1870.73135
2022-08-05T09:58:57.335Z,1912.5408
2022-08-05T10:04:02.064Z,1946.51205
2022-08-05T10:09:05.572Z,1987.5647
2022-08-05T10:14:10.289Z,2010.52595
2022-08-05T10:19:13.021Z,2049.19975
2022-08-05T10:24:15.226Z,2076.25505
2022-08-05T10:29:23.727Z,2118.34025
2022-08-05T10:35:07.790Z,2156.86575
2022-08-05T10:40:16.852Z,2196.6824
2022-08-05T10:45:24.001Z,2224.38235
2022-08-05T10:50:43.616Z,2276.50015
2022-08-05T10:56:05.139Z,2314.04825
2022-08-05T11:01:28.059Z,2338.1885
2022-08-05T11:06:31.021Z,2373.5612
2022-08-05T11:11:52.244Z,2385.73305
2022-08-05T11:16:58.046Z,2406.093
2022-08-05T11:22:01.903Z,2417.5822
2022-08-05T11:27:05.475Z,2437.5181
2022-08-05T11:32:08.101Z,2489.43245
2022-08-05T11:38:28.239Z,2516.94795
2022-08-05T11:44:05.061Z,2537.8784
2022-08-05T11:49:10.144Z,2567.459
2022-08-05T11:54:12.224Z,2596.37595
2022-08-05T11:59:15.565Z,2608.2892
2022-08-05T12:04:23.206Z,2605.52245
2022-08-05T12:09:38.676Z,2635.95115
2022-08-05T12:14:55.766Z,2631.8381
2022-08-05T12:20:27.690Z,2639.2694
2022-08-05T12:25:35.153Z,2635.15635
2022-08-05T12:30:37.664Z,2638.4936
2022-08-05T12:35:48.234Z,2630.71055
2022-08-05T12:40:49.757Z,2623.4067
2022-08-05T12:45:52.243Z,2612.8759
2022-08-05T12:50:54.344Z,2590.5783
2022-08-05T12:55:56.086Z,2539.7878
2022-08-05T13:02:01.011Z,2502.0914
2022-08-05T13:07:10.510Z,2463.10385
2022-08-05T13:12:17.737Z,2421.553
2022-08-05T13:17:20.608Z,2386.36475
2022-08-05T13:22:33.781Z,2341.19905
2022-08-05T13:27:38.861Z,2312.55785
2022-08-05T13:32:42.207Z,2266.8578
2022-08-05T13:37:55.557Z,2208.19295
2022-08-05T13:42:57.502Z,2129.2043
2022-08-05T13:48:09.618Z,2040.3675
2022-08-05T13:53:58.843Z,1892.23835
2022-08-05T13:59:05.949Z,1726.7366
2022-08-05T14:04:20.965Z,1757.53605
2022-08-05T14:09:22.835Z,1757.8688
2022-08-05T14:14:33.795Z,1711.70855
2022-08-05T14:19:43.231Z,1528.77905
2022-08-05T14:24:56.442Z,1489.77435
2022-08-05T14:29:59.056Z,1355.69955
2022-08-05T14:35:00.611Z,1202.2422
2022-08-05T14:40:03.378Z,993.54855
2022-08-05T14:45:05.885Z,824.15805
2022-08-05T14:50:18.454Z,632.0269
2022-08-05T14:55:20.932Z,488.6536
2022-08-05T15:00:28.206Z,414.3142
2022-08-05T15:06:08.237Z,313.37415
2022-08-05T15:11:18.016Z,266.4265
2022-08-05T15:16:20.887Z,211.5591
2022-08-05T15:21:24.204Z,170.18715
2022-08-05T15:26:32.001Z,122.8822
2022-08-05T15:31:34.776Z,86.82685
2022-08-05T15:36:36.646Z,62.83305
2022-08-05T15:41:57.729Z,36.2208
2022-08-05T15:47:00.212Z,14.38525
2022-08-05T15:52:13.642Z,6.7553
2022-08-05T15:57:18.700Z,3.49615
2022-08-05T16:02:25.484Z,1.42215
2022-08-05T16:07:29.568Z,0.4148
2022-08-05T16:12:31.972Z,0
2022-08-05T16:17:33.665Z,0.88715
2022-08-05T16:22:35.855Z,0.88715
2022-08-05T16:28:00.872Z,0
2022-08-05T16:33:07.931Z,0.88715
2022-08-05T16:38:24.141Z,0
2022-08-05T16:43:27.933Z,0
2022-08-05T16:48:33.533Z,0.88715
2022-08-05T16:54:02.968Z,0
2022-08-05T16:59:08.766Z,0
2022-08-05T17:04:10.559Z,0.88715
2022-08-05T17:09:12.416Z,0
2022-08-05T17:14:34.188Z,0
2022-08-05T17:19:36.361Z,0
2022-08-05T17:24:40.552Z,0.88715
2022-08-05T17:29:47.138Z,0
2022-08-05T17:34:53.216Z,0.88715
2022-08-05T17:39:56.003Z,0
2022-08-05T17:44:59.525Z,0
2022-08-05T17:50:10.315Z,0
2022-08-05T17:55:12.908Z,0
2022-08-05T18:00:15.656Z,0
2022-08-05T18:05:17.792Z,0
2022-08-05T18:10:20.958Z,0
2022-08-05T18:15:23.497Z,0
2022-08-05T18:20:29.520Z,0
2022-08-05T18:25:34.261Z,0
2022-08-05T18:30:39.067Z,0
2022-08-05T18:36:01.214Z,0
2022-08-05T18:42:00.720Z,0
2022-08-05T18:47:07.266Z,0
2022-08-05T18:52:10.938Z,0
2022-08-05T18:57:15.448Z,0
2022-08-05T19:02:36.566Z,0
2022-08-05T19:07:46.712Z,0
2022-08-05T19:12:49.538Z,0
2022-08-05T19:18:08.426Z,0
2022-08-05T19:24:06.210Z,0
2022-08-05T19:29:12.354Z,0
2022-08-05T19:34:20.914Z,0
2022-08-05T19:39:23.519Z,0
2022-08-05T19:44:30.556Z,0
2022-08-05T19:49:32.779Z,0
2022-08-05T19:54:35.256Z,0
2022-08-05T19:59:56.561Z,0
2022-08-05T20:05:05.102Z,0
2022-08-05T20:10:13.733Z,0
2022-08-05T20:15:47.886Z,0
2022-08-05T20:20:55.765Z,0
2022-08-05T20:25:58.381Z,0
2022-08-05T20:31:02.778Z,0
2022-08-05T20:36:04.673Z,0
2022-08-05T20:41:08.111Z,0
2022-08-05T20:46:18.616Z,0.88715
2022-08-05T20:51:27.951Z,0
2022-08-05T20:56:41.951Z,0
2022-08-05T21:01:44.184Z,0.88715
2022-08-05T21:06:46.239Z,0
2022-08-05T21:12:09.226Z,0
2022-08-05T21:17:13.289Z,0
2022-08-05T21:22:17.608Z,0
2022-08-05T21:27:25.455Z,0
2022-08-05T21:32:29.872Z,0
2022-08-05T21:37:41.388Z,0
2022-08-05T21:42:44.537Z,0
2022-08-05T21:47:56.309Z,0
2022-08-05T21:53:04.851Z,0
2022-08-05T21:58:20.429Z,0
2022-08-05T22:03:52.340Z,0
2022-08-05T22:08:55.344Z,0
2022-08-05T22:14:34.516Z,0
2022-08-05T22:19:57.431Z,0
2022-08-05T22:25:04.558Z,0
2022-08-05T22:30:10.346Z,0
2022-08-05T22:35:12.700Z,0
2022-08-05T22:40:16.701Z,0
2022-08-05T22:45:21.899Z,0
2022-08-05T22:50:26.871Z,0.88715
2022-08-05T22:55:29.640Z,0
2022-08-05T23:00:57.983Z,0
2022-08-05T23:05:59.408Z,0
2022-08-05T23:11:02.703Z,0
2022-08-05T23:16:04.167Z,0
2022-08-05T23:21:05.918Z,0
2022-08-05T23:26:11.870Z,0
2022-08-05T23:31:16.024Z,0
2022-08-05T23:36:18.492Z,0
2022-08-05T23:41:20.869Z,0
2022-08-05T23:46:23.279Z,0
2022-08-05T23:51:24.811Z,0
2022-08-05T23:56:27.258Z,0
